sensor_id;sensor_type;location;lat;lon;timestamp;P1;durP1;ratioP1;P2;durP2;ratioP2
2868;SDS011;1442;47.448;8.582;2022-12-11T00:01:24;32.60;;;17.27;;
2868;SDS011;1442;47.448;8.582;2022-12-11T00:03:52;30.45;;;15.52;;
2868;SDS011;1442;47.448;8.582;2022-12-11T00:06:21;32.60;;;16.85;;
2868;SDS011;1442;47.448;8.582;2022-12-11T00:08:50;32.08;;;17.08;;
2868;SDS011;1442;47.448;8.582;2022-12-11T00:11:17;32.72;;;17.27;;
2868;SDS011;1442;47.448;8.582;2022-12-11T00:13:44;34.65;;;16.83;;
2868;SDS011;1442;47.448;8.582;2022-12-11T00:16:12;29.95;;;15.75;;
2868;SDS011;1442;47.448;8.582;2022-12-11T00:18:39;30.05;;;16.88;;
2868;SDS011;1442;47.448;8.582;2022-12-11T00:21:07;35.55;;;19.13;;
2868;SDS011;1442;47.448;8.582;2022-12-11T00:23:37;31.35;;;16.35;;
2868;SDS011;1442;47.448;8.582;2022-12-11T00:26:05;34.08;;;16.88;;
2868;SDS011;1442;47.448;8.582;2022-12-11T00:28:32;33.35;;;17.27;;
2868;SDS011;1442;47.448;8.582;2022-12-11T00:31:02;32.30;;;16.40;;
2868;SDS011;1442;47.448;8.582;2022-12-11T00:33:29;32.33;;;15.95;;
2868;SDS011;1442;47.448;8.582;2022-12-11T00:35:56;40.92;;;19.08;;
2868;SDS011;1442;47.448;8.582;2022-12-11T00:38:23;37.78;;;18.02;;
2868;SDS011;1442;47.448;8.582;2022-12-11T00:40:56;41.00;;;20.10;;
2868;SDS011;1442;47.448;8.582;2022-12-11T00:43:23;49.45;;;18.15;;
2868;SDS011;1442;47.448;8.582;2022-12-11T00:45:51;59.30;;;20.23;;
2868;SDS011;1442;47.448;8.582;2022-12-11T00:48:18;53.33;;;19.73;;
2868;SDS011;1442;47.448;8.582;2022-12-11T00:50:45;56.22;;;19.75;;
2868;SDS011;1442;47.448;8.582;2022-12-11T00:53:12;61.28;;;18.88;;
2868;SDS011;1442;47.448;8.582;2022-12-11T00:55:40;54.10;;;18.85;;
2868;SDS011;1442;47.448;8.582;2022-12-11T00:58:09;89.38;;;19.80;;
2868;SDS011;1442;47.448;8.582;2022-12-11T01:00:36;68.35;;;20.15;;
2868;SDS011;1442;47.448;8.582;2022-12-11T01:03:04;54.13;;;19.02;;
2868;SDS011;1442;47.448;8.582;2022-12-11T01:05:31;58.63;;;18.92;;
2868;SDS011;1442;47.448;8.582;2022-12-11T01:07:59;114.40;;;19.10;;
2868;SDS011;1442;47.448;8.582;2022-12-11T01:10:26;91.30;;;18.63;;
2868;SDS011;1442;47.448;8.582;2022-12-11T01:12:54;54.63;;;17.17;;
2868;SDS011;1442;47.448;8.582;2022-12-11T01:15:23;49.28;;;17.70;;
2868;SDS011;1442;47.448;8.582;2022-12-11T01:17:51;53.63;;;19.17;;
2868;SDS011;1442;47.448;8.582;2022-12-11T01:20:18;61.58;;;17.95;;
2868;SDS011;1442;47.448;8.582;2022-12-11T01:22:46;48.72;;;18.42;;
2868;SDS011;1442;47.448;8.582;2022-12-11T01:25:13;47.28;;;20.25;;
2868;SDS011;1442;47.448;8.582;2022-12-11T01:27:40;39.92;;;17.50;;
2868;SDS011;1442;47.448;8.582;2022-12-11T01:30:07;49.00;;;19.05;;
2868;SDS011;1442;47.448;8.582;2022-12-11T01:32:36;41.72;;;19.35;;
2868;SDS011;1442;47.448;8.582;2022-12-11T01:35:03;47.47;;;19.05;;
2868;SDS011;1442;47.448;8.582;2022-12-11T01:37:31;41.63;;;18.77;;
2868;SDS011;1442;47.448;8.582;2022-12-11T01:39:59;38.67;;;18.27;;
2868;SDS011;1442;47.448;8.582;2022-12-11T01:42:26;42.03;;;18.05;;
2868;SDS011;1442;47.448;8.582;2022-12-11T01:47:43;35.10;;;17.05;;
2868;SDS011;1442;47.448;8.582;2022-12-11T01:50:10;35.60;;;16.17;;
2868;SDS011;1442;47.448;8.582;2022-12-11T01:52:37;35.45;;;17.38;;
2868;SDS011;1442;47.448;8.582;2022-12-11T01:55:06;40.35;;;18.02;;
2868;SDS011;1442;47.448;8.582;2022-12-11T01:57:33;38.47;;;18.05;;
2868;SDS011;1442;47.448;8.582;2022-12-11T02:00:02;37.00;;;17.67;;
2868;SDS011;1442;47.448;8.582;2022-12-11T02:02:30;41.33;;;17.80;;
2868;SDS011;1442;47.448;8.582;2022-12-11T02:04:59;38.30;;;17.75;;
2868;SDS011;1442;47.448;8.582;2022-12-11T02:07:27;41.72;;;18.17;;
2868;SDS011;1442;47.448;8.582;2022-12-11T02:09:55;37.72;;;17.52;;
2868;SDS011;1442;47.448;8.582;2022-12-11T02:12:24;40.47;;;17.95;;
2868;SDS011;1442;47.448;8.582;2022-12-11T02:14:52;42.90;;;19.30;;
2868;SDS011;1442;47.448;8.582;2022-12-11T02:17:25;37.42;;;17.40;;
2868;SDS011;1442;47.448;8.582;2022-12-11T02:19:58;39.03;;;18.67;;
2868;SDS011;1442;47.448;8.582;2022-12-11T02:25:00;34.03;;;15.70;;
2868;SDS011;1442;47.448;8.582;2022-12-11T02:27:31;35.80;;;17.05;;
2868;SDS011;1442;47.448;8.582;2022-12-11T02:30:02;40.17;;;18.00;;
2868;SDS011;1442;47.448;8.582;2022-12-11T02:32:31;46.45;;;18.75;;
2868;SDS011;1442;47.448;8.582;2022-12-11T02:35:02;40.95;;;17.25;;
2868;SDS011;1442;47.448;8.582;2022-12-11T02:37:30;49.50;;;16.90;;
2868;SDS011;1442;47.448;8.582;2022-12-11T02:39:58;39.60;;;16.33;;
2868;SDS011;1442;47.448;8.582;2022-12-11T02:42:28;33.90;;;17.70;;
2868;SDS011;1442;47.448;8.582;2022-12-11T02:44:56;40.25;;;16.27;;
2868;SDS011;1442;47.448;8.582;2022-12-11T02:47:26;43.67;;;17.92;;
2868;SDS011;1442;47.448;8.582;2022-12-11T02:49:56;55.63;;;19.05;;
2868;SDS011;1442;47.448;8.582;2022-12-11T02:52:24;43.58;;;19.10;;
2868;SDS011;1442;47.448;8.582;2022-12-11T02:54:53;43.15;;;17.13;;
2868;SDS011;1442;47.448;8.582;2022-12-11T02:57:23;40.13;;;18.60;;
2868;SDS011;1442;47.448;8.582;2022-12-11T02:59:51;40.05;;;18.30;;
2868;SDS011;1442;47.448;8.582;2022-12-11T03:02:18;41.97;;;18.40;;
2868;SDS011;1442;47.448;8.582;2022-12-11T03:04:47;40.67;;;17.60;;
2868;SDS011;1442;47.448;8.582;2022-12-11T03:07:15;35.65;;;17.67;;
2868;SDS011;1442;47.448;8.582;2022-12-11T03:09:44;30.00;;;16.20;;
2868;SDS011;1442;47.448;8.582;2022-12-11T03:12:13;35.33;;;17.00;;
2868;SDS011;1442;47.448;8.582;2022-12-11T03:14:41;32.15;;;16.15;;
2868;SDS011;1442;47.448;8.582;2022-12-11T03:17:11;34.28;;;16.77;;
2868;SDS011;1442;47.448;8.582;2022-12-11T03:19:40;28.53;;;14.33;;
2868;SDS011;1442;47.448;8.582;2022-12-11T03:22:11;34.50;;;16.50;;
2868;SDS011;1442;47.448;8.582;2022-12-11T03:24:40;31.42;;;14.98;;
2868;SDS011;1442;47.448;8.582;2022-12-11T03:32:20;28.80;;;14.13;;
2868;SDS011;1442;47.448;8.582;2022-12-11T03:34:49;30.40;;;16.15;;
2868;SDS011;1442;47.448;8.582;2022-12-11T03:37:21;31.75;;;15.32;;
2868;SDS011;1442;47.448;8.582;2022-12-11T03:39:50;33.17;;;16.45;;
2868;SDS011;1442;47.448;8.582;2022-12-11T03:42:19;35.33;;;15.75;;
2868;SDS011;1442;47.448;8.582;2022-12-11T03:44:48;33.03;;;17.08;;
2868;SDS011;1442;47.448;8.582;2022-12-11T03:47:17;33.10;;;17.10;;
2868;SDS011;1442;47.448;8.582;2022-12-11T03:49:44;33.28;;;16.83;;
2868;SDS011;1442;47.448;8.582;2022-12-11T03:52:13;34.80;;;15.77;;
2868;SDS011;1442;47.448;8.582;2022-12-11T03:54:43;33.72;;;16.15;;
2868;SDS011;1442;47.448;8.582;2022-12-11T03:57:12;36.00;;;16.75;;
2868;SDS011;1442;47.448;8.582;2022-12-11T03:59:41;36.72;;;16.70;;
2868;SDS011;1442;47.448;8.582;2022-12-11T04:02:08;34.22;;;16.50;;
2868;SDS011;1442;47.448;8.582;2022-12-11T04:04:35;34.72;;;16.50;;
2868;SDS011;1442;47.448;8.582;2022-12-11T04:07:03;35.63;;;17.05;;
2868;SDS011;1442;47.448;8.582;2022-12-11T04:09:30;39.70;;;16.58;;
2868;SDS011;1442;47.448;8.582;2022-12-11T04:11:58;31.55;;;16.02;;
2868;SDS011;1442;47.448;8.582;2022-12-11T04:14:26;35.10;;;16.92;;
2868;SDS011;1442;47.448;8.582;2022-12-11T04:17:10;38.05;;;16.88;;
2868;SDS011;1442;47.448;8.582;2022-12-11T04:19:58;29.10;;;14.77;;
2868;SDS011;1442;47.448;8.582;2022-12-11T04:22:43;32.67;;;14.98;;
2868;SDS011;1442;47.448;8.582;2022-12-11T04:25:28;31.02;;;16.00;;
2868;SDS011;1442;47.448;8.582;2022-12-11T04:27:56;31.92;;;17.17;;
2868;SDS011;1442;47.448;8.582;2022-12-11T04:30:23;38.38;;;17.55;;
2868;SDS011;1442;47.448;8.582;2022-12-11T04:32:51;34.47;;;16.52;;
2868;SDS011;1442;47.448;8.582;2022-12-11T04:35:19;32.60;;;15.27;;
2868;SDS011;1442;47.448;8.582;2022-12-11T04:37:46;31.08;;;14.88;;
2868;SDS011;1442;47.448;8.582;2022-12-11T04:40:14;36.80;;;15.63;;
2868;SDS011;1442;47.448;8.582;2022-12-11T04:42:42;35.42;;;16.67;;
2868;SDS011;1442;47.448;8.582;2022-12-11T04:45:11;32.20;;;15.77;;
2868;SDS011;1442;47.448;8.582;2022-12-11T04:47:38;38.00;;;16.10;;
2868;SDS011;1442;47.448;8.582;2022-12-11T04:50:07;35.72;;;16.02;;
2868;SDS011;1442;47.448;8.582;2022-12-11T04:52:35;33.58;;;16.73;;
2868;SDS011;1442;47.448;8.582;2022-12-11T04:55:02;35.90;;;15.32;;
2868;SDS011;1442;47.448;8.582;2022-12-11T04:57:29;31.73;;;14.32;;
2868;SDS011;1442;47.448;8.582;2022-12-11T04:59:56;35.80;;;16.42;;
2868;SDS011;1442;47.448;8.582;2022-12-11T05:02:25;36.20;;;16.17;;
2868;SDS011;1442;47.448;8.582;2022-12-11T05:04:53;32.72;;;15.25;;
2868;SDS011;1442;47.448;8.582;2022-12-11T05:07:20;34.00;;;16.08;;
2868;SDS011;1442;47.448;8.582;2022-12-11T05:09:47;29.05;;;14.57;;
2868;SDS011;1442;47.448;8.582;2022-12-11T05:12:14;36.20;;;15.35;;
2868;SDS011;1442;47.448;8.582;2022-12-11T05:14:41;28.73;;;14.55;;
2868;SDS011;1442;47.448;8.582;2022-12-11T05:17:08;28.55;;;13.77;;
2868;SDS011;1442;47.448;8.582;2022-12-11T05:19:37;31.50;;;15.02;;
2868;SDS011;1442;47.448;8.582;2022-12-11T05:22:04;32.67;;;14.38;;
2868;SDS011;1442;47.448;8.582;2022-12-11T05:24:31;29.10;;;14.25;;
2868;SDS011;1442;47.448;8.582;2022-12-11T05:26:58;26.45;;;13.15;;
2868;SDS011;1442;47.448;8.582;2022-12-11T05:29:25;34.05;;;14.18;;
2868;SDS011;1442;47.448;8.582;2022-12-11T05:31:52;29.45;;;14.23;;
2868;SDS011;1442;47.448;8.582;2022-12-11T05:34:20;36.20;;;15.52;;
2868;SDS011;1442;47.448;8.582;2022-12-11T05:36:48;31.02;;;13.75;;
2868;SDS011;1442;47.448;8.582;2022-12-11T05:39:15;42.67;;;15.00;;
2868;SDS011;1442;47.448;8.582;2022-12-11T05:41:42;29.73;;;13.85;;
2868;SDS011;1442;47.448;8.582;2022-12-11T05:44:10;38.33;;;14.82;;
2868;SDS011;1442;47.448;8.582;2022-12-11T05:46:37;33.42;;;14.43;;
2868;SDS011;1442;47.448;8.582;2022-12-11T05:49:05;29.05;;;14.70;;
2868;SDS011;1442;47.448;8.582;2022-12-11T05:51:32;34.88;;;14.10;;
2868;SDS011;1442;47.448;8.582;2022-12-11T05:54:01;31.63;;;14.40;;
2868;SDS011;1442;47.448;8.582;2022-12-11T05:56:30;34.00;;;14.10;;
2868;SDS011;1442;47.448;8.582;2022-12-11T05:58:58;30.08;;;13.63;;
2868;SDS011;1442;47.448;8.582;2022-12-11T06:01:26;31.30;;;14.50;;
2868;SDS011;1442;47.448;8.582;2022-12-11T06:03:54;31.83;;;13.88;;
2868;SDS011;1442;47.448;8.582;2022-12-11T06:06:21;29.75;;;13.50;;
2868;SDS011;1442;47.448;8.582;2022-12-11T06:08:48;30.52;;;12.65;;
2868;SDS011;1442;47.448;8.582;2022-12-11T06:11:17;27.40;;;14.73;;
2868;SDS011;1442;47.448;8.582;2022-12-11T06:13:44;30.30;;;13.18;;
2868;SDS011;1442;47.448;8.582;2022-12-11T06:16:11;24.80;;;13.13;;
2868;SDS011;1442;47.448;8.582;2022-12-11T06:18:40;36.92;;;13.10;;
2868;SDS011;1442;47.448;8.582;2022-12-11T06:21:11;30.98;;;13.85;;
2868;SDS011;1442;47.448;8.582;2022-12-11T06:23:39;27.33;;;13.18;;
2868;SDS011;1442;47.448;8.582;2022-12-11T06:26:06;28.50;;;12.52;;
2868;SDS011;1442;47.448;8.582;2022-12-11T06:28:35;27.15;;;12.32;;
2868;SDS011;1442;47.448;8.582;2022-12-11T06:31:02;23.63;;;12.18;;
2868;SDS011;1442;47.448;8.582;2022-12-11T06:33:30;27.77;;;12.82;;
2868;SDS011;1442;47.448;8.582;2022-12-11T06:35:59;25.95;;;13.57;;
2868;SDS011;1442;47.448;8.582;2022-12-11T06:38:27;20.42;;;10.50;;
2868;SDS011;1442;47.448;8.582;2022-12-11T06:40:54;23.48;;;10.60;;
2868;SDS011;1442;47.448;8.582;2022-12-11T06:43:21;24.13;;;11.70;;
2868;SDS011;1442;47.448;8.582;2022-12-11T06:45:50;22.25;;;11.35;;
2868;SDS011;1442;47.448;8.582;2022-12-11T06:48:17;23.42;;;10.50;;
2868;SDS011;1442;47.448;8.582;2022-12-11T06:50:45;21.10;;;11.32;;
2868;SDS011;1442;47.448;8.582;2022-12-11T06:53:12;20.95;;;9.95;;
2868;SDS011;1442;47.448;8.582;2022-12-11T06:55:40;21.42;;;10.40;;
2868;SDS011;1442;47.448;8.582;2022-12-11T06:58:07;17.25;;;10.30;;
2868;SDS011;1442;47.448;8.582;2022-12-11T07:00:34;21.60;;;10.18;;
2868;SDS011;1442;47.448;8.582;2022-12-11T07:03:03;19.52;;;9.85;;
2868;SDS011;1442;47.448;8.582;2022-12-11T07:05:31;18.77;;;10.60;;
2868;SDS011;1442;47.448;8.582;2022-12-11T07:07:58;19.10;;;10.88;;
2868;SDS011;1442;47.448;8.582;2022-12-11T07:10:25;19.25;;;9.57;;
2868;SDS011;1442;47.448;8.582;2022-12-11T07:12:52;20.15;;;9.98;;
2868;SDS011;1442;47.448;8.582;2022-12-11T07:15:19;17.95;;;9.77;;
2868;SDS011;1442;47.448;8.582;2022-12-11T07:17:47;22.90;;;10.80;;
2868;SDS011;1442;47.448;8.582;2022-12-11T07:20:15;18.33;;;9.13;;
2868;SDS011;1442;47.448;8.582;2022-12-11T07:22:42;20.80;;;10.98;;
2868;SDS011;1442;47.448;8.582;2022-12-11T07:25:09;22.95;;;10.80;;
2868;SDS011;1442;47.448;8.582;2022-12-11T07:27:37;28.08;;;11.57;;
2868;SDS011;1442;47.448;8.582;2022-12-11T07:30:04;27.02;;;11.07;;
2868;SDS011;1442;47.448;8.582;2022-12-11T07:32:31;20.90;;;10.73;;
2868;SDS011;1442;47.448;8.582;2022-12-11T07:34:58;19.08;;;10.02;;
2868;SDS011;1442;47.448;8.582;2022-12-11T07:37:27;22.95;;;10.05;;
2868;SDS011;1442;47.448;8.582;2022-12-11T07:39:54;17.98;;;9.23;;
2868;SDS011;1442;47.448;8.582;2022-12-11T07:42:21;18.38;;;9.85;;
2868;SDS011;1442;47.448;8.582;2022-12-11T07:44:48;18.00;;;9.63;;
2868;SDS011;1442;47.448;8.582;2022-12-11T07:47:15;18.05;;;8.63;;
2868;SDS011;1442;47.448;8.582;2022-12-11T07:49:43;20.17;;;9.80;;
2868;SDS011;1442;47.448;8.582;2022-12-11T07:52:10;16.95;;;9.30;;
2868;SDS011;1442;47.448;8.582;2022-12-11T07:54:38;20.00;;;9.50;;
2868;SDS011;1442;47.448;8.582;2022-12-11T07:57:05;18.92;;;10.00;;
2868;SDS011;1442;47.448;8.582;2022-12-11T07:59:33;20.90;;;10.40;;
2868;SDS011;1442;47.448;8.582;2022-12-11T08:02:00;14.95;;;8.20;;
2868;SDS011;1442;47.448;8.582;2022-12-11T08:04:27;20.70;;;9.30;;
2868;SDS011;1442;47.448;8.582;2022-12-11T08:06:54;19.55;;;8.82;;
2868;SDS011;1442;47.448;8.582;2022-12-11T08:09:21;18.95;;;8.77;;
2868;SDS011;1442;47.448;8.582;2022-12-11T08:11:50;19.63;;;9.88;;
2868;SDS011;1442;47.448;8.582;2022-12-11T08:14:17;19.88;;;10.02;;
2868;SDS011;1442;47.448;8.582;2022-12-11T08:16:45;21.55;;;9.13;;
2868;SDS011;1442;47.448;8.582;2022-12-11T08:19:12;20.75;;;10.88;;
2868;SDS011;1442;47.448;8.582;2022-12-11T08:21:40;20.40;;;9.88;;
2868;SDS011;1442;47.448;8.582;2022-12-11T08:24:07;17.92;;;10.02;;
2868;SDS011;1442;47.448;8.582;2022-12-11T08:26:35;20.23;;;9.60;;
2868;SDS011;1442;47.448;8.582;2022-12-11T08:29:03;20.13;;;10.70;;
2868;SDS011;1442;47.448;8.582;2022-12-11T08:31:30;23.38;;;11.77;;
2868;SDS011;1442;47.448;8.582;2022-12-11T08:33:58;26.63;;;11.95;;
2868;SDS011;1442;47.448;8.582;2022-12-11T08:36:25;29.15;;;13.00;;
2868;SDS011;1442;47.448;8.582;2022-12-11T08:38:53;40.30;;;14.13;;
2868;SDS011;1442;47.448;8.582;2022-12-11T08:41:21;35.67;;;13.48;;
2868;SDS011;1442;47.448;8.582;2022-12-11T08:43:49;27.17;;;13.40;;
2868;SDS011;1442;47.448;8.582;2022-12-11T08:46:21;27.20;;;13.57;;
2868;SDS011;1442;47.448;8.582;2022-12-11T08:48:48;28.75;;;12.95;;
2868;SDS011;1442;47.448;8.582;2022-12-11T08:51:16;25.80;;;11.98;;
2868;SDS011;1442;47.448;8.582;2022-12-11T08:53:44;30.70;;;13.32;;
2868;SDS011;1442;47.448;8.582;2022-12-11T08:56:12;24.92;;;12.82;;
2868;SDS011;1442;47.448;8.582;2022-12-11T08:58:40;29.40;;;13.82;;
2868;SDS011;1442;47.448;8.582;2022-12-11T09:01:07;28.50;;;14.25;;
2868;SDS011;1442;47.448;8.582;2022-12-11T09:03:36;30.90;;;12.57;;
2868;SDS011;1442;47.448;8.582;2022-12-11T09:06:04;37.58;;;14.43;;
2868;SDS011;1442;47.448;8.582;2022-12-11T09:08:31;33.00;;;13.98;;
2868;SDS011;1442;47.448;8.582;2022-12-11T09:11:01;28.70;;;14.27;;
2868;SDS011;1442;47.448;8.582;2022-12-11T09:13:28;25.90;;;12.40;;
2868;SDS011;1442;47.448;8.582;2022-12-11T09:15:55;34.72;;;15.50;;
2868;SDS011;1442;47.448;8.582;2022-12-11T09:18:22;42.30;;;14.85;;
2868;SDS011;1442;47.448;8.582;2022-12-11T09:20:57;38.53;;;15.55;;
2868;SDS011;1442;47.448;8.582;2022-12-11T09:23:25;37.85;;;16.77;;
2868;SDS011;1442;47.448;8.582;2022-12-11T09:25:52;34.13;;;15.50;;
2868;SDS011;1442;47.448;8.582;2022-12-11T09:28:19;37.72;;;15.73;;
2868;SDS011;1442;47.448;8.582;2022-12-11T09:30:46;40.97;;;16.30;;
2868;SDS011;1442;47.448;8.582;2022-12-11T09:33:14;33.85;;;16.13;;
2868;SDS011;1442;47.448;8.582;2022-12-11T09:35:41;41.95;;;16.85;;
2868;SDS011;1442;47.448;8.582;2022-12-11T09:38:09;39.17;;;16.55;;
2868;SDS011;1442;47.448;8.582;2022-12-11T09:40:38;35.08;;;16.40;;
2868;SDS011;1442;47.448;8.582;2022-12-11T09:43:08;34.80;;;14.82;;
2868;SDS011;1442;47.448;8.582;2022-12-11T09:45:40;39.08;;;15.05;;
2868;SDS011;1442;47.448;8.582;2022-12-11T09:48:07;35.75;;;16.13;;
2868;SDS011;1442;47.448;8.582;2022-12-11T09:50:36;35.80;;;16.15;;
2868;SDS011;1442;47.448;8.582;2022-12-11T09:53:04;30.98;;;14.68;;
2868;SDS011;1442;47.448;8.582;2022-12-11T09:55:37;34.47;;;14.93;;
2868;SDS011;1442;47.448;8.582;2022-12-11T09:58:05;32.40;;;14.63;;
2868;SDS011;1442;47.448;8.582;2022-12-11T10:00:35;32.10;;;15.30;;
2868;SDS011;1442;47.448;8.582;2022-12-11T10:05:49;32.42;;;14.30;;
2868;SDS011;1442;47.448;8.582;2022-12-11T10:08:19;34.35;;;14.43;;
2868;SDS011;1442;47.448;8.582;2022-12-11T10:10:52;33.50;;;15.00;;
2868;SDS011;1442;47.448;8.582;2022-12-11T10:13:23;41.83;;;17.48;;
2868;SDS011;1442;47.448;8.582;2022-12-11T10:15:53;39.95;;;15.75;;
2868;SDS011;1442;47.448;8.582;2022-12-11T10:18:22;44.65;;;16.80;;
2868;SDS011;1442;47.448;8.582;2022-12-11T10:20:49;39.95;;;16.25;;
2868;SDS011;1442;47.448;8.582;2022-12-11T10:23:18;34.53;;;14.95;;
2868;SDS011;1442;47.448;8.582;2022-12-11T10:25:47;37.33;;;15.48;;
2868;SDS011;1442;47.448;8.582;2022-12-11T10:28:17;33.53;;;14.63;;
2868;SDS011;1442;47.448;8.582;2022-12-11T10:30:47;34.38;;;14.00;;
2868;SDS011;1442;47.448;8.582;2022-12-11T10:33:17;28.33;;;13.73;;
2868;SDS011;1442;47.448;8.582;2022-12-11T10:35:46;30.47;;;13.90;;
2868;SDS011;1442;47.448;8.582;2022-12-11T10:38:14;31.73;;;13.75;;
2868;SDS011;1442;47.448;8.582;2022-12-11T10:40:44;31.38;;;15.48;;
2868;SDS011;1442;47.448;8.582;2022-12-11T10:43:11;32.78;;;14.85;;
2868;SDS011;1442;47.448;8.582;2022-12-11T10:45:48;33.58;;;15.05;;
2868;SDS011;1442;47.448;8.582;2022-12-11T10:48:15;31.42;;;15.00;;
2868;SDS011;1442;47.448;8.582;2022-12-11T10:50:42;31.35;;;13.60;;
2868;SDS011;1442;47.448;8.582;2022-12-11T10:53:18;38.75;;;15.80;;
2868;SDS011;1442;47.448;8.582;2022-12-11T10:55:45;32.13;;;14.73;;
2868;SDS011;1442;47.448;8.582;2022-12-11T10:58:14;30.83;;;14.75;;
2868;SDS011;1442;47.448;8.582;2022-12-11T11:00:44;33.83;;;14.57;;
2868;SDS011;1442;47.448;8.582;2022-12-11T11:03:19;41.78;;;14.80;;
2868;SDS011;1442;47.448;8.582;2022-12-11T11:05:46;41.83;;;16.40;;
2868;SDS011;1442;47.448;8.582;2022-12-11T11:08:15;30.25;;;14.20;;
2868;SDS011;1442;47.448;8.582;2022-12-11T11:10:51;34.53;;;15.02;;
2868;SDS011;1442;47.448;8.582;2022-12-11T11:13:19;37.78;;;13.95;;
2868;SDS011;1442;47.448;8.582;2022-12-11T11:15:48;32.10;;;15.55;;
2868;SDS011;1442;47.448;8.582;2022-12-11T11:18:18;29.65;;;13.90;;
2868;SDS011;1442;47.448;8.582;2022-12-11T11:20:50;28.40;;;13.65;;
2868;SDS011;1442;47.448;8.582;2022-12-11T11:23:17;31.13;;;14.25;;
2868;SDS011;1442;47.448;8.582;2022-12-11T11:25:50;29.70;;;14.68;;
2868;SDS011;1442;47.448;8.582;2022-12-11T11:28:19;33.95;;;13.93;;
2868;SDS011;1442;47.448;8.582;2022-12-11T11:30:55;27.85;;;14.30;;
2868;SDS011;1442;47.448;8.582;2022-12-11T11:33:23;27.75;;;14.23;;
2868;SDS011;1442;47.448;8.582;2022-12-11T11:35:50;31.05;;;13.73;;
2868;SDS011;1442;47.448;8.582;2022-12-11T11:38:18;32.08;;;15.07;;
2868;SDS011;1442;47.448;8.582;2022-12-11T11:40:47;28.75;;;13.88;;
2868;SDS011;1442;47.448;8.582;2022-12-11T11:43:18;34.95;;;14.80;;
2868;SDS011;1442;47.448;8.582;2022-12-11T11:45:50;31.15;;;13.52;;
2868;SDS011;1442;47.448;8.582;2022-12-11T11:48:23;29.05;;;14.27;;
2868;SDS011;1442;47.448;8.582;2022-12-11T11:50:53;26.27;;;14.10;;
2868;SDS011;1442;47.448;8.582;2022-12-11T11:53:21;26.58;;;13.25;;
2868;SDS011;1442;47.448;8.582;2022-12-11T11:55:53;30.02;;;13.93;;
2868;SDS011;1442;47.448;8.582;2022-12-11T11:58:23;47.35;;;15.27;;
2868;SDS011;1442;47.448;8.582;2022-12-11T12:00:52;40.58;;;15.40;;
2868;SDS011;1442;47.448;8.582;2022-12-11T12:03:20;36.63;;;14.55;;
2868;SDS011;1442;47.448;8.582;2022-12-11T12:05:51;38.65;;;14.43;;
2868;SDS011;1442;47.448;8.582;2022-12-11T12:08:22;37.22;;;16.00;;
2868;SDS011;1442;47.448;8.582;2022-12-11T12:10:55;34.33;;;14.35;;
2868;SDS011;1442;47.448;8.582;2022-12-11T12:13:27;32.22;;;14.52;;
2868;SDS011;1442;47.448;8.582;2022-12-11T12:15:58;28.85;;;14.13;;
2868;SDS011;1442;47.448;8.582;2022-12-11T12:18:27;29.45;;;14.10;;
2868;SDS011;1442;47.448;8.582;2022-12-11T12:21:02;27.67;;;14.35;;
2868;SDS011;1442;47.448;8.582;2022-12-11T12:23:43;29.50;;;14.80;;
2868;SDS011;1442;47.448;8.582;2022-12-11T12:26:13;36.83;;;14.90;;
2868;SDS011;1442;47.448;8.582;2022-12-11T12:28:43;29.55;;;14.40;;
2868;SDS011;1442;47.448;8.582;2022-12-11T12:31:27;36.10;;;15.30;;
2868;SDS011;1442;47.448;8.582;2022-12-11T12:33:59;32.10;;;14.32;;
2868;SDS011;1442;47.448;8.582;2022-12-11T12:36:32;28.58;;;13.80;;
2868;SDS011;1442;47.448;8.582;2022-12-11T12:39:02;27.10;;;13.35;;
2868;SDS011;1442;47.448;8.582;2022-12-11T12:41:34;30.55;;;14.93;;
2868;SDS011;1442;47.448;8.582;2022-12-11T12:44:05;26.75;;;14.05;;
2868;SDS011;1442;47.448;8.582;2022-12-11T12:46:45;27.38;;;14.23;;
2868;SDS011;1442;47.448;8.582;2022-12-11T12:49:18;34.55;;;14.90;;
2868;SDS011;1442;47.448;8.582;2022-12-11T12:51:48;27.97;;;14.43;;
2868;SDS011;1442;47.448;8.582;2022-12-11T12:54:16;29.50;;;14.50;;
2868;SDS011;1442;47.448;8.582;2022-12-11T12:56:43;27.20;;;14.00;;
2868;SDS011;1442;47.448;8.582;2022-12-11T12:59:18;30.95;;;13.85;;
2868;SDS011;1442;47.448;8.582;2022-12-11T13:01:46;30.42;;;13.50;;
2868;SDS011;1442;47.448;8.582;2022-12-11T13:04:25;30.95;;;13.45;;
2868;SDS011;1442;47.448;8.582;2022-12-11T13:06:55;33.00;;;14.57;;
2868;SDS011;1442;47.448;8.582;2022-12-11T13:09:23;27.75;;;13.50;;
2868;SDS011;1442;47.448;8.582;2022-12-11T13:11:51;29.70;;;13.50;;
2868;SDS011;1442;47.448;8.582;2022-12-11T13:14:23;26.30;;;14.07;;
2868;SDS011;1442;47.448;8.582;2022-12-11T13:17:03;28.52;;;14.27;;
2868;SDS011;1442;47.448;8.582;2022-12-11T13:19:31;25.42;;;13.73;;
2868;SDS011;1442;47.448;8.582;2022-12-11T13:22:02;25.55;;;13.32;;
2868;SDS011;1442;47.448;8.582;2022-12-11T13:24:30;27.70;;;13.13;;
2868;SDS011;1442;47.448;8.582;2022-12-11T13:27:07;31.63;;;15.07;;
2868;SDS011;1442;47.448;8.582;2022-12-11T13:29:35;27.33;;;13.23;;
2868;SDS011;1442;47.448;8.582;2022-12-11T13:32:04;26.70;;;13.18;;
2868;SDS011;1442;47.448;8.582;2022-12-11T13:34:49;26.98;;;14.18;;
2868;SDS011;1442;47.448;8.582;2022-12-11T13:37:22;25.93;;;14.40;;
2868;SDS011;1442;47.448;8.582;2022-12-11T13:39:50;24.48;;;13.35;;
2868;SDS011;1442;47.448;8.582;2022-12-11T13:42:20;27.55;;;14.13;;
2868;SDS011;1442;47.448;8.582;2022-12-11T13:44:49;27.52;;;13.63;;
2868;SDS011;1442;47.448;8.582;2022-12-11T13:47:17;25.05;;;13.13;;
2868;SDS011;1442;47.448;8.582;2022-12-11T13:49:46;26.75;;;14.35;;
2868;SDS011;1442;47.448;8.582;2022-12-11T13:52:15;25.88;;;13.45;;
2868;SDS011;1442;47.448;8.582;2022-12-11T13:54:47;25.70;;;14.45;;
2868;SDS011;1442;47.448;8.582;2022-12-11T13:57:15;26.50;;;14.20;;
2868;SDS011;1442;47.448;8.582;2022-12-11T13:59:46;25.77;;;14.15;;
2868;SDS011;1442;47.448;8.582;2022-12-11T14:02:14;27.40;;;13.48;;
2868;SDS011;1442;47.448;8.582;2022-12-11T14:04:44;28.95;;;13.20;;
2868;SDS011;1442;47.448;8.582;2022-12-11T14:07:11;25.90;;;13.05;;
2868;SDS011;1442;47.448;8.582;2022-12-11T14:09:42;25.42;;;13.75;;
2868;SDS011;1442;47.448;8.582;2022-12-11T14:12:14;24.70;;;13.45;;
2868;SDS011;1442;47.448;8.582;2022-12-11T14:14:43;25.25;;;13.13;;
2868;SDS011;1442;47.448;8.582;2022-12-11T14:17:11;20.90;;;12.55;;
2868;SDS011;1442;47.448;8.582;2022-12-11T14:19:40;25.13;;;13.45;;
2868;SDS011;1442;47.448;8.582;2022-12-11T14:22:15;23.42;;;12.00;;
2868;SDS011;1442;47.448;8.582;2022-12-11T14:24:47;20.75;;;11.98;;
2868;SDS011;1442;47.448;8.582;2022-12-11T14:27:16;23.13;;;12.35;;
2868;SDS011;1442;47.448;8.582;2022-12-11T14:29:43;22.88;;;12.48;;
2868;SDS011;1442;47.448;8.582;2022-12-11T14:32:12;26.42;;;13.63;;
2868;SDS011;1442;47.448;8.582;2022-12-11T14:37:10;22.75;;;12.18;;
2868;SDS011;1442;47.448;8.582;2022-12-11T14:39:42;25.80;;;12.90;;
2868;SDS011;1442;47.448;8.582;2022-12-11T14:42:11;24.80;;;13.02;;
2868;SDS011;1442;47.448;8.582;2022-12-11T14:44:42;25.80;;;13.73;;
2868;SDS011;1442;47.448;8.582;2022-12-11T14:47:11;24.33;;;12.85;;
2868;SDS011;1442;47.448;8.582;2022-12-11T14:49:40;23.67;;;12.90;;
2868;SDS011;1442;47.448;8.582;2022-12-11T14:52:10;25.08;;;12.30;;
2868;SDS011;1442;47.448;8.582;2022-12-11T14:54:40;26.73;;;13.45;;
2868;SDS011;1442;47.448;8.582;2022-12-11T14:57:11;25.02;;;12.43;;
2868;SDS011;1442;47.448;8.582;2022-12-11T14:59:45;24.63;;;13.00;;
2868;SDS011;1442;47.448;8.582;2022-12-11T15:02:21;25.35;;;12.68;;
2868;SDS011;1442;47.448;8.582;2022-12-11T15:04:57;24.33;;;13.13;;
2868;SDS011;1442;47.448;8.582;2022-12-11T15:07:25;25.90;;;11.75;;
2868;SDS011;1442;47.448;8.582;2022-12-11T15:09:52;27.17;;;13.20;;
2868;SDS011;1442;47.448;8.582;2022-12-11T15:12:19;24.00;;;12.65;;
2868;SDS011;1442;47.448;8.582;2022-12-11T15:14:49;24.58;;;12.45;;